createdAt,value
2018-06-09T00:00:27.011Z,90.41
2018-06-09T00:01:26.987Z,89.36
2018-06-09T00:02:26.959Z,89.26
2018-06-09T00:03:26.945Z,88.78
2018-06-09T00:04:26.916Z,88.78
2018-06-09T00:05:26.890Z,89.07
2018-06-09T00:06:26.877Z,89.07
2018-06-09T00:07:26.857Z,88.87
2018-06-09T00:08:26.832Z,88.78
2018-06-09T00:09:26.799Z,88.87
2018-06-09T00:10:26.787Z,88.10
2018-06-09T00:11:26.784Z,88.78
2018-06-09T00:12:26.741Z,88.87
2018-06-09T00:13:26.720Z,87.82
2018-06-09T00:14:26.690Z,88.30
2018-06-09T00:15:26.674Z,88.30
2018-06-09T00:16:26.643Z,87.87
2018-06-09T00:17:26.623Z,87.92
2018-06-09T00:18:26.599Z,87.72
2018-06-09T00:19:26.574Z,88.20
2018-06-09T00:20:26.561Z,88.78
2018-06-09T00:21:26.539Z,88.10
2018-06-09T00:22:26.508Z,88.10
2018-06-09T00:23:26.493Z,88.20
2018-06-09T00:24:26.468Z,89.16
2018-06-09T00:25:26.443Z,89.64
2018-06-09T00:26:26.426Z,88.87
2018-06-09T00:27:26.405Z,88.97
2018-06-09T00:28:26.374Z,88.68
2018-06-09T00:29:26.348Z,89.26
2018-06-09T00:30:26.334Z,89.50
2018-06-09T00:31:26.309Z,89.93
2018-06-09T00:32:26.283Z,90.12
2018-06-09T00:33:26.266Z,90.03
2018-06-09T00:34:26.242Z,89.98
2018-06-09T00:35:26.217Z,90.08
2018-06-09T00:36:26.193Z,90.12
2018-06-09T00:37:26.170Z,90.46
2018-06-09T00:38:26.153Z,90.75
2018-06-09T00:39:26.121Z,90.80
2018-06-09T00:40:26.108Z,91.04
2018-06-09T00:41:26.081Z,91.66
2018-06-09T00:42:26.061Z,91.61
2018-06-09T00:43:26.033Z,91.52
2018-06-09T00:44:26.018Z,91.71
2018-06-09T00:45:25.995Z,92.14
2018-06-09T00:46:25.965Z,92.67
2018-06-09T00:47:25.945Z,92.38
2018-06-09T00:48:25.924Z,93.15
2018-06-09T00:49:25.906Z,92.67
2018-06-09T00:50:25.875Z,93.15
2018-06-09T00:51:25.850Z,93.82
2018-06-09T00:52:25.835Z,94.49
2018-06-09T00:53:25.806Z,93.63
2018-06-09T00:54:25.787Z,93.92
2018-06-09T00:55:25.763Z,94.01
2018-06-09T00:56:25.745Z,93.92
2018-06-09T00:57:25.723Z,94.11
2018-06-09T00:58:25.691Z,94.11
2018-06-09T00:59:25.686Z,95.07
2018-06-09T01:00:25.652Z,94.88
2018-06-09T01:01:25.630Z,94.69
2018-06-09T01:02:25.613Z,94.98
2018-06-09T01:03:25.585Z,95.45
2018-06-09T01:04:25.555Z,95.07
2018-06-09T01:05:25.537Z,94.78
2018-06-09T01:06:25.518Z,95.07
2018-06-09T01:07:25.520Z,95.55
2018-06-09T01:08:25.463Z,95.94
2018-06-09T01:09:25.449Z,95.36
2018-06-09T01:10:25.422Z,95.26
2018-06-09T01:11:25.402Z,95.94
2018-06-09T01:12:25.382Z,95.45
2018-06-09T01:13:25.354Z,94.49
2018-06-09T01:14:25.334Z,94.69
2018-06-09T01:15:25.303Z,94.83
2018-06-09T01:16:25.291Z,94.88
2018-06-09T01:17:25.266Z,95.17
2018-06-09T01:18:25.234Z,94.98
2018-06-09T01:19:25.223Z,95.55
2018-06-09T01:20:25.218Z,95.12
2018-06-09T01:21:25.175Z,94.83
2018-06-09T01:22:25.147Z,94.83
2018-06-09T01:23:25.122Z,94.16
2018-06-09T01:24:25.102Z,94.35
2018-06-09T01:25:25.083Z,94.35
2018-06-09T01:26:25.059Z,93.68
2018-06-09T01:27:25.044Z,93.39
2018-06-09T01:28:25.013Z,93.30
2018-06-09T01:29:24.986Z,92.82
2018-06-09T01:30:24.968Z,91.76
2018-06-09T01:31:24.951Z,92.63
2018-06-09T01:32:24.915Z,92.33
2018-06-09T01:33:24.892Z,91.28
2018-06-09T01:34:24.884Z,91.33
2018-06-09T01:35:24.852Z,91.66
2018-06-09T01:36:24.827Z,92.19
2018-06-09T01:37:24.817Z,91.71
2018-06-09T01:38:24.776Z,91.13
2018-06-09T01:39:24.762Z,90.08
2018-06-09T01:40:24.737Z,90.17
2018-06-09T01:41:24.713Z,90.37
2018-06-09T01:42:24.693Z,90.37
2018-06-09T01:43:24.669Z,91.23
2018-06-09T01:44:24.646Z,89.40
2018-06-09T01:45:24.621Z,89.89
2018-06-09T01:46:24.595Z,89.98
2018-06-09T01:47:24.570Z,89.22
2018-06-09T01:48:24.559Z,89.55
2018-06-09T01:49:24.531Z,90.32
2018-06-09T01:50:24.501Z,89.17
2018-06-09T01:51:24.479Z,89.12
2018-06-09T01:52:24.461Z,89.46
2018-06-09T01:53:24.434Z,89.12
2018-06-09T01:54:24.420Z,89.22
2018-06-09T01:55:24.386Z,89.31
2018-06-09T01:56:24.372Z,88.98
2018-06-09T01:57:24.345Z,88.93
2018-06-09T01:58:24.326Z,88.69
2018-06-09T01:59:24.302Z,89.60
2018-06-09T02:00:24.274Z,89.31
2018-06-09T02:01:24.255Z,88.25
2018-06-09T02:02:24.231Z,88.11
2018-06-09T02:03:24.212Z,87.82
2018-06-09T02:04:24.190Z,87.92
2018-06-09T02:05:24.156Z,87.82
2018-06-09T02:06:24.141Z,87.82
2018-06-09T02:07:24.118Z,87.92
2018-06-09T02:08:24.094Z,87.82
2018-06-09T02:09:24.066Z,87.73
2018-06-09T02:10:24.040Z,88.11
2018-06-09T02:11:24.026Z,87.92
2018-06-09T02:12:24.009Z,88.02
2018-06-09T02:13:23.971Z,88.21
2018-06-09T02:14:23.958Z,87.44
2018-06-09T02:15:23.925Z,87.63
2018-06-09T02:16:23.916Z,87.73
2018-06-09T02:17:23.878Z,87.54
2018-06-09T02:18:23.870Z,87.82
2018-06-09T02:19:23.835Z,88.02
2018-06-09T02:20:23.822Z,88.11
2018-06-09T02:21:23.791Z,88.40
2018-06-09T02:22:23.774Z,88.49
2018-06-09T02:23:23.743Z,88.31
2018-06-09T02:24:23.725Z,87.92
2018-06-09T02:25:23.700Z,88.40
2018-06-09T02:26:23.686Z,88.40
2018-06-09T02:27:23.650Z,89.46
2018-06-09T02:28:23.637Z,89.75
2018-06-09T02:29:23.608Z,89.46
2018-06-09T02:30:23.590Z,89.17
2018-06-09T02:31:23.577Z,89.36
2018-06-09T02:32:23.556Z,89.75
2018-06-09T02:33:23.514Z,90.22
2018-06-09T02:34:23.497Z,89.94
2018-06-09T02:35:23.470Z,90.42
2018-06-09T02:36:23.448Z,90.42
2018-06-09T02:37:23.420Z,90.80
2018-06-09T02:38:23.405Z,90.56
2018-06-09T02:39:23.374Z,90.37
2018-06-09T02:40:23.359Z,90.47
2018-06-09T02:41:23.336Z,90.95
2018-06-09T02:42:23.309Z,91.05
2018-06-09T02:43:23.282Z,91.81
2018-06-09T02:44:23.266Z,91.72
2018-06-09T02:45:23.248Z,91.91
2018-06-09T02:46:23.216Z,91.81
2018-06-09T02:47:23.188Z,91.42
2018-06-09T02:48:23.174Z,91.72
2018-06-09T02:49:23.145Z,91.91
2018-06-09T02:50:23.120Z,92.29
2018-06-09T02:51:23.097Z,93.06
2018-06-09T02:52:23.083Z,93.25
2018-06-09T02:53:23.056Z,93.73
2018-06-09T02:54:23.024Z,93.54
2018-06-09T02:55:23.004Z,94.59
2018-06-09T02:56:22.983Z,94.59
2018-06-09T02:57:22.960Z,95.31
2018-06-09T02:58:22.941Z,96.61
2018-06-09T02:59:22.916Z,96.27
2018-06-09T03:00:22.887Z,96.85
2018-06-09T03:01:22.874Z,97.42
2018-06-09T03:02:22.881Z,97.52
2018-06-09T03:03:22.864Z,97.61
2018-06-09T03:04:22.853Z,98.19
2018-06-09T03:05:22.771Z,98.48
2018-06-09T03:06:22.749Z,98.57
2018-06-09T03:07:22.730Z,99.63
2018-06-09T03:08:22.696Z,99.82
2018-06-09T03:09:22.673Z,99.99
2018-06-09T03:10:22.662Z,99.99
2018-06-09T03:11:22.632Z,99.99
2018-06-09T03:12:22.608Z,99.99
2018-06-09T03:13:22.585Z,99.99
2018-06-09T03:14:22.557Z,99.99
2018-06-09T03:15:22.535Z,99.99
2018-06-09T03:16:22.516Z,99.99
2018-06-09T03:17:22.485Z,99.99
2018-06-09T03:18:22.474Z,99.99
2018-06-09T03:19:22.450Z,99.99
2018-06-09T03:20:22.414Z,99.99
2018-06-09T03:21:22.389Z,99.99
2018-06-09T03:22:22.378Z,99.99
2018-06-09T03:23:22.343Z,99.99
2018-06-09T03:24:22.329Z,99.99
2018-06-09T03:25:22.299Z,99.99
2018-06-09T03:26:22.279Z,99.99
2018-06-09T03:27:22.254Z,99.99
2018-06-09T03:28:22.233Z,99.99
2018-06-09T03:29:22.216Z,99.99
2018-06-09T03:30:22.183Z,99.99
2018-06-09T03:31:22.162Z,99.99
2018-06-09T03:32:22.178Z,99.99
2018-06-09T03:33:22.126Z,99.99
2018-06-09T03:34:22.088Z,99.99
2018-06-09T03:35:22.071Z,99.99
2018-06-09T03:36:22.045Z,99.99
2018-06-09T03:37:22.017Z,99.99
2018-06-09T03:38:21.997Z,99.99
2018-06-09T03:39:21.991Z,99.99
2018-06-09T03:40:21.952Z,99.99
2018-06-09T03:41:21.925Z,99.99
2018-06-09T03:42:21.912Z,99.99
2018-06-09T03:43:21.905Z,99.99
2018-06-09T03:44:21.862Z,99.73
2018-06-09T03:45:21.830Z,99.99
2018-06-09T03:46:21.811Z,99.99
2018-06-09T03:47:21.785Z,99.99
2018-06-09T03:48:21.763Z,99.99
2018-06-09T03:49:21.735Z,99.99
2018-06-09T03:50:21.719Z,99.99
2018-06-09T03:51:21.689Z,99.99
2018-06-09T03:52:21.673Z,99.99
2018-06-09T03:53:21.645Z,99.99
2018-06-09T03:54:21.619Z,99.99
2018-06-09T03:55:21.593Z,99.99
2018-06-09T03:56:21.587Z,99.99
2018-06-09T03:57:21.555Z,99.99
2018-06-09T03:58:21.521Z,99.99
2018-06-09T03:59:21.504Z,99.99
2018-06-09T04:00:21.484Z,99.99
2018-06-09T04:01:21.466Z,99.99
2018-06-09T04:02:21.435Z,99.99
2018-06-09T04:03:21.413Z,99.99
2018-06-09T04:04:21.381Z,99.99
2018-06-09T04:05:21.357Z,99.99
2018-06-09T04:06:21.346Z,99.99
2018-06-09T04:07:21.319Z,99.99
2018-06-09T04:08:21.290Z,99.99
2018-06-09T04:09:21.272Z,99.99
2018-06-09T04:10:21.244Z,99.99
2018-06-09T04:11:21.231Z,99.99
2018-06-09T04:12:21.196Z,99.99
2018-06-09T04:13:21.181Z,99.99
2018-06-09T04:14:21.152Z,99.99
2018-06-09T04:15:21.125Z,99.99
2018-06-09T04:16:21.105Z,99.99
2018-06-09T04:17:21.080Z,99.99
2018-06-09T04:18:21.057Z,99.99
2018-06-09T04:19:21.028Z,99.99
2018-06-09T04:20:21.014Z,99.99
2018-06-09T04:21:20.990Z,99.68
2018-06-09T04:22:20.960Z,99.99
2018-06-09T04:23:20.945Z,99.99
2018-06-09T04:24:20.919Z,99.99
2018-06-09T04:25:20.895Z,99.99
2018-06-09T04:26:20.868Z,99.99
2018-06-09T04:27:20.888Z,99.99
2018-06-09T04:28:20.856Z,99.99
2018-06-09T04:29:20.800Z,99.99
2018-06-09T04:30:20.781Z,99.99
2018-06-09T04:31:20.752Z,99.99
2018-06-09T04:32:20.729Z,99.99
2018-06-09T04:33:20.720Z,99.99
2018-06-09T04:34:20.676Z,99.99
2018-06-09T04:35:20.655Z,99.99
2018-06-09T04:36:20.639Z,99.99
2018-06-09T04:37:20.605Z,99.99
2018-06-09T04:38:20.590Z,99.99
2018-06-09T04:39:20.567Z,99.99
2018-06-09T04:40:20.537Z,99.99
2018-06-09T04:41:20.513Z,99.99
2018-06-09T04:42:20.494Z,99.99
2018-06-09T04:43:20.472Z,99.99
2018-06-09T04:44:20.449Z,99.99
2018-06-09T04:45:20.424Z,99.99
2018-06-09T04:46:20.409Z,99.99
2018-06-09T04:47:20.380Z,99.99
2018-06-09T04:48:20.359Z,99.99
2018-06-09T04:49:20.321Z,99.99
2018-06-09T04:50:20.307Z,99.99
2018-06-09T04:51:20.279Z,99.91
2018-06-09T04:52:20.269Z,99.99
2018-06-09T04:53:20.241Z,99.99
2018-06-09T04:54:20.205Z,99.99
2018-06-09T04:55:20.194Z,99.99
2018-06-09T04:56:20.160Z,99.99
2018-06-09T04:57:20.151Z,99.99
2018-06-09T04:58:20.112Z,98.19
2018-06-09T04:59:20.150Z,98.14
2018-06-09T05:00:20.064Z,98.14
2018-06-09T05:01:20.040Z,98.77
2018-06-09T05:02:20.025Z,99.24
2018-06-09T05:03:20.007Z,99.34
2018-06-09T05:04:19.973Z,99.53
2018-06-09T05:05:19.949Z,99.99
2018-06-09T05:06:19.938Z,99.99
2018-06-09T05:07:19.909Z,99.99
2018-06-09T05:08:19.880Z,99.99
2018-06-09T05:09:19.862Z,99.99
2018-06-09T05:10:19.850Z,99.99
2018-06-09T05:11:19.814Z,99.63
2018-06-09T05:12:19.797Z,99.99
2018-06-09T05:13:19.762Z,99.73
2018-06-09T05:14:19.771Z,99.91
2018-06-09T05:15:19.716Z,99.99
2018-06-09T05:16:19.700Z,99.99
2018-06-09T05:17:20.436Z,99.99
2018-06-09T05:18:19.651Z,99.99
2018-06-09T05:19:19.627Z,99.99
2018-06-09T05:20:19.603Z,99.99
2018-06-09T05:21:19.578Z,99.91
2018-06-09T05:22:19.552Z,99.96
2018-06-09T05:23:19.526Z,99.99
2018-06-09T05:24:19.511Z,99.99
2018-06-09T05:25:19.492Z,99.77
2018-06-09T05:26:19.476Z,99.99
2018-06-09T05:27:19.435Z,99.99
2018-06-09T05:28:19.415Z,99.99
2018-06-09T05:29:19.395Z,99.99
2018-06-09T05:30:19.410Z,99.99
2018-06-09T05:31:19.339Z,98.33
2018-06-09T05:32:19.316Z,99.01
2018-06-09T05:33:19.303Z,99.44
2018-06-09T05:34:19.275Z,98.91
2018-06-09T05:35:19.245Z,99.20
2018-06-09T05:36:19.225Z,98.91
2018-06-09T05:37:19.215Z,98.58
2018-06-09T05:38:19.177Z,98.67
2018-06-09T05:39:19.157Z,99.05
2018-06-09T05:40:19.225Z,98.29
2018-06-09T05:41:19.108Z,98.77
2018-06-09T05:42:19.092Z,98.38
2018-06-09T05:43:19.066Z,98.38
2018-06-09T05:44:19.050Z,98.48
2018-06-09T05:45:19.025Z,97.91
2018-06-09T05:46:18.996Z,98.29
2018-06-09T05:47:18.970Z,98.19
2018-06-09T05:48:18.950Z,98.86
2018-06-09T05:49:18.926Z,97.91
2018-06-09T05:50:18.901Z,97.42
2018-06-09T05:51:18.885Z,98.58
2018-06-09T05:52:18.853Z,98.43
2018-06-09T05:53:18.828Z,97.47
2018-06-09T05:54:18.813Z,97.76
2018-06-09T05:55:18.782Z,97.28
2018-06-09T05:56:18.768Z,97.86
2018-06-09T05:57:18.750Z,97.76
2018-06-09T05:58:18.714Z,97.86
2018-06-09T05:59:18.700Z,97.86
2018-06-09T06:00:18.669Z,98.05
2018-06-09T06:01:18.647Z,97.86
2018-06-09T06:02:18.628Z,97.19
2018-06-09T06:03:18.605Z,97.47
2018-06-09T06:04:18.581Z,98.43
2018-06-09T06:05:18.558Z,98.63
2018-06-09T06:06:18.544Z,96.70
2018-06-09T06:07:18.516Z,97.47
2018-06-09T06:08:18.496Z,97.47
2018-06-09T06:09:18.463Z,97.57
2018-06-09T06:10:18.444Z,97.52
2018-06-09T06:11:18.418Z,97.76
2018-06-09T06:12:18.399Z,97.28
2018-06-09T06:13:18.373Z,97.52
2018-06-09T06:14:18.357Z,97.42
2018-06-09T06:15:18.324Z,97.42
2018-06-09T06:16:18.312Z,95.89
2018-06-09T06:17:18.285Z,95.89
2018-06-09T06:18:18.259Z,95.89
2018-06-09T06:19:18.239Z,95.12
2018-06-09T06:20:18.214Z,95.60
2018-06-09T06:21:18.219Z,95.36
2018-06-09T06:22:18.165Z,95.40
2018-06-09T06:23:18.151Z,95.70
2018-06-09T06:24:18.120Z,95.21
2018-06-09T06:25:18.101Z,94.73
2018-06-09T06:26:18.078Z,94.73
2018-06-09T06:27:18.054Z,95.12
2018-06-09T06:28:18.042Z,95.12
2018-06-09T06:29:18.016Z,94.93
2018-06-09T06:30:17.987Z,94.83
2018-06-09T06:31:17.968Z,95.40
2018-06-09T06:32:17.944Z,95.50
2018-06-09T06:33:17.920Z,94.83
2018-06-09T06:34:17.902Z,95.21
2018-06-09T06:35:17.875Z,95.40
2018-06-09T06:36:17.855Z,94.98
2018-06-09T06:37:17.829Z,94.88
2018-06-09T06:38:17.812Z,94.59
2018-06-09T06:39:17.788Z,94.11
2018-06-09T06:40:17.767Z,94.78
2018-06-09T06:41:17.738Z,96.03
2018-06-09T06:42:17.720Z,95.84
2018-06-09T06:43:17.705Z,95.84
2018-06-09T06:44:17.670Z,95.26
2018-06-09T06:45:17.646Z,95.36
2018-06-09T06:46:17.633Z,95.55
2018-06-09T06:47:17.626Z,95.36
2018-06-09T06:48:17.582Z,94.78
2018-06-09T06:49:17.567Z,95.94
2018-06-09T06:50:17.581Z,96.13
2018-06-09T06:51:17.512Z,95.17
2018-06-09T06:52:17.496Z,95.17
2018-06-09T06:53:17.477Z,94.98
2018-06-09T06:54:17.446Z,95.26
2018-06-09T06:55:17.426Z,95.84
2018-06-09T06:56:17.415Z,95.36
2018-06-09T06:57:17.379Z,94.98
2018-06-09T06:58:17.371Z,94.59
2018-06-09T06:59:17.333Z,95.26
2018-06-09T07:00:17.334Z,95.55
2018-06-09T07:01:17.291Z,95.65
2018-06-09T07:02:17.279Z,95.07
2018-06-09T07:03:17.252Z,95.02
2018-06-09T07:04:17.232Z,95.31
2018-06-09T07:05:17.203Z,94.83
2018-06-09T07:06:17.189Z,93.58
2018-06-09T07:07:17.166Z,94.15
2018-06-09T07:08:17.139Z,94.15
2018-06-09T07:09:17.110Z,94.01
2018-06-09T07:10:17.105Z,94.92
2018-06-09T07:11:17.076Z,94.35
2018-06-09T07:12:17.046Z,95.31
2018-06-09T07:13:17.024Z,95.50
2018-06-09T07:14:17.013Z,94.64
2018-06-09T07:15:16.980Z,94.83
2018-06-09T07:16:16.992Z,93.77
2018-06-09T07:17:16.933Z,94.92
2018-06-09T07:18:16.919Z,93.96
2018-06-09T07:19:16.928Z,93.58
2018-06-09T07:20:16.876Z,94.64
2018-06-09T07:21:16.845Z,94.64
2018-06-09T07:22:16.836Z,94.15
2018-06-09T07:23:16.801Z,93.96
2018-06-09T07:24:16.794Z,94.64
2018-06-09T07:25:16.757Z,94.10
2018-06-09T07:26:16.741Z,93.24
2018-06-09T07:27:16.720Z,93.33
2018-06-09T07:28:16.704Z,92.95
2018-06-09T07:29:16.673Z,93.24
2018-06-09T07:30:16.652Z,92.66
2018-06-09T07:31:16.624Z,92.57
2018-06-09T07:32:16.608Z,93.10
2018-06-09T07:33:16.591Z,92.76
2018-06-09T07:34:16.558Z,92.85
2018-06-09T07:35:16.543Z,93.15
2018-06-09T07:36:16.517Z,93.15
2018-06-09T07:37:16.498Z,93.33
2018-06-09T07:38:16.482Z,93.33
2018-06-09T07:39:16.450Z,92.57
2018-06-09T07:40:16.435Z,92.66
2018-06-09T07:41:16.411Z,92.47
2018-06-09T07:42:16.383Z,92.57
2018-06-09T07:43:16.358Z,93.24
2018-06-09T07:44:16.345Z,92.76
2018-06-09T07:45:16.338Z,92.08
2018-06-09T07:46:16.297Z,92.18
2018-06-09T07:47:16.280Z,92.66
2018-06-09T07:48:16.250Z,93.05
2018-06-09T07:49:16.228Z,93.24
2018-06-09T07:50:16.215Z,92.66
2018-06-09T07:51:16.202Z,91.99
2018-06-09T07:52:16.169Z,92.57
2018-06-09T07:53:16.141Z,93.24
2018-06-09T07:54:16.126Z,92.38
2018-06-09T07:55:16.106Z,92.13
2018-06-09T07:56:16.082Z,92.42
2018-06-09T07:57:16.058Z,92.80
2018-06-09T07:58:16.048Z,92.13
2018-06-09T07:59:16.037Z,92.13
2018-06-09T08:00:15.985Z,91.46
2018-06-09T08:01:15.964Z,90.40
2018-06-09T08:02:15.950Z,91.21
2018-06-09T08:03:15.919Z,91.79
2018-06-09T08:04:15.908Z,92.18
2018-06-09T08:05:15.880Z,91.60
2018-06-09T08:06:15.864Z,91.41
2018-06-09T08:07:15.833Z,92.47
2018-06-09T08:08:15.815Z,91.79
2018-06-09T08:09:15.792Z,91.12
2018-06-09T08:10:15.773Z,91.21
2018-06-09T08:11:15.749Z,90.54
2018-06-09T08:12:15.724Z,90.34
2018-06-09T08:13:15.709Z,90.30
2018-06-09T08:14:15.688Z,89.81
2018-06-09T08:15:15.658Z,90.10
2018-06-09T08:16:15.646Z,89.81
2018-06-09T08:17:15.622Z,89.53
2018-06-09T08:18:15.598Z,89.47
2018-06-09T08:19:15.573Z,89.04
2018-06-09T08:20:15.562Z,87.93
2018-06-09T08:21:15.533Z,88.60
2018-06-09T08:22:15.514Z,87.83
2018-06-09T08:23:15.496Z,87.16
2018-06-09T08:24:15.479Z,87.16
2018-06-09T08:25:15.454Z,87.64
2018-06-09T08:26:15.433Z,87.74
2018-06-09T08:27:15.419Z,87.54
2018-06-09T08:28:15.382Z,86.19
2018-06-09T08:29:15.366Z,86.58
2018-06-09T08:30:15.345Z,86.43
2018-06-09T08:31:15.333Z,86.52
2018-06-09T08:32:15.311Z,87.20
2018-06-09T08:33:15.280Z,86.00
2018-06-09T08:34:15.263Z,86.58
2018-06-09T08:35:15.243Z,87.26
2018-06-09T08:36:15.252Z,86.96
2018-06-09T08:37:15.201Z,87.26
2018-06-09T08:38:15.179Z,87.64
2018-06-09T08:39:15.167Z,87.49
2018-06-09T08:40:15.136Z,87.45
2018-06-09T08:41:15.112Z,87.16
2018-06-09T08:42:15.100Z,86.58
2018-06-09T08:43:15.076Z,86.10
2018-06-09T08:44:15.055Z,87.35
2018-06-09T08:45:15.037Z,87.16
2018-06-09T08:46:15.088Z,86.68
2018-06-09T08:47:14.999Z,86.58
2018-06-09T08:48:14.976Z,87.20
2018-06-09T08:49:14.951Z,87.78
2018-06-09T08:50:14.948Z,88.65
2018-06-09T08:51:14.911Z,87.88
2018-06-09T08:52:14.887Z,87.40
2018-06-09T08:53:14.867Z,87.68
2018-06-09T08:54:14.852Z,87.30
2018-06-09T08:55:14.833Z,87.20
2018-06-09T08:56:14.802Z,87.24
2018-06-09T08:57:14.786Z,86.47
2018-06-09T08:58:14.769Z,85.80
2018-06-09T08:59:14.751Z,85.50
2018-06-09T09:00:14.727Z,86.28
2018-06-09T09:01:14.706Z,85.50
2018-06-09T09:02:14.682Z,86.28
2018-06-09T09:03:14.683Z,86.13
2018-06-09T09:04:14.647Z,85.22
2018-06-09T09:05:14.632Z,85.26
2018-06-09T09:06:14.605Z,86.86
2018-06-09T09:07:14.581Z,86.08
2018-06-09T09:08:14.564Z,86.13
2018-06-09T09:09:14.545Z,86.13
2018-06-09T09:10:14.522Z,86.80
2018-06-09T09:11:14.497Z,86.13
2018-06-09T09:12:14.488Z,85.99
2018-06-09T09:13:14.464Z,87.05
2018-06-09T09:14:14.440Z,87.96
2018-06-09T09:15:14.418Z,86.86
2018-06-09T09:16:14.402Z,86.08
2018-06-09T09:17:14.385Z,87.15
2018-06-09T09:18:14.362Z,87.15
2018-06-09T09:19:14.339Z,86.90
2018-06-09T09:20:14.339Z,86.13
2018-06-09T09:21:14.302Z,86.13
2018-06-09T09:22:14.280Z,86.71
2018-06-09T09:23:14.256Z,86.32
2018-06-09T09:24:14.297Z,86.52
2018-06-09T09:25:14.218Z,85.55
2018-06-09T09:26:14.201Z,86.17
2018-06-09T09:27:14.187Z,86.27
2018-06-09T09:28:14.157Z,85.88
2018-06-09T09:29:14.141Z,85.45
2018-06-09T09:30:14.140Z,86.61
2018-06-09T09:31:14.103Z,86.03
2018-06-09T09:32:14.162Z,85.45
2018-06-09T09:33:14.060Z,86.13
2018-06-09T09:34:14.044Z,85.49
2018-06-09T09:35:14.015Z,85.26
2018-06-09T09:36:14.003Z,85.49
2018-06-09T09:37:13.981Z,85.49
2018-06-09T09:38:13.960Z,85.01
2018-06-09T09:39:13.945Z,85.25
2018-06-09T09:40:13.922Z,85.53
2018-06-09T09:41:13.902Z,83.80
2018-06-09T09:42:13.878Z,83.89
2018-06-09T09:43:13.861Z,84.09
2018-06-09T09:44:13.841Z,84.38
2018-06-09T09:45:13.824Z,83.70
2018-06-09T09:46:13.802Z,83.51
2018-06-09T09:47:13.780Z,83.70
2018-06-09T09:48:13.762Z,83.31
2018-06-09T09:49:13.742Z,83.51
2018-06-09T09:50:13.730Z,83.70
2018-06-09T09:51:13.712Z,82.93
2018-06-09T09:52:13.682Z,84.09
2018-06-09T09:53:13.664Z,84.32
2018-06-09T09:54:13.662Z,83.31
2018-06-09T09:55:13.631Z,83.70
2018-06-09T09:56:13.607Z,84.19
2018-06-09T09:57:13.590Z,83.12
2018-06-09T09:58:13.570Z,83.51
2018-06-09T09:59:13.553Z,82.87
2018-06-09T10:00:13.526Z,82.29
2018-06-09T10:01:13.517Z,82.20
2018-06-09T10:02:13.494Z,82.20
2018-06-09T10:03:13.474Z,82.87
2018-06-09T10:04:13.451Z,80.26
2018-06-09T10:05:13.438Z,80.16
2018-06-09T10:06:13.422Z,80.74
2018-06-09T10:07:13.392Z,80.55
2018-06-09T10:08:13.383Z,81.32
2018-06-09T10:09:13.363Z,81.71
2018-06-09T10:10:13.346Z,82.00
2018-06-09T10:11:13.319Z,81.71
2018-06-09T10:12:13.305Z,82.00
2018-06-09T10:13:13.285Z,81.42
2018-06-09T10:14:13.270Z,82.10
2018-06-09T10:15:13.241Z,80.94
2018-06-09T10:16:13.231Z,80.74
2018-06-09T10:17:13.211Z,81.32
2018-06-09T10:18:13.185Z,81.42
2018-06-09T10:19:13.182Z,80.65
2018-06-09T10:20:13.156Z,80.16
2018-06-09T10:21:13.137Z,79.20
2018-06-09T10:22:13.117Z,79.78
2018-06-09T10:23:13.100Z,79.39
2018-06-09T10:24:13.074Z,80.65
2018-06-09T10:25:13.055Z,80.84
2018-06-09T10:26:13.085Z,78.94
2018-06-09T10:27:13.022Z,79.72
2018-06-09T10:28:13.002Z,78.85
2018-06-09T10:29:12.983Z,79.33
2018-06-09T10:30:12.972Z,79.66
2018-06-09T10:31:12.953Z,79.47
2018-06-09T10:32:12.926Z,78.89
2018-06-09T10:33:12.914Z,78.99
2018-06-09T10:34:12.896Z,79.27
2018-06-09T10:35:12.873Z,79.04
2018-06-09T10:36:12.897Z,80.05
2018-06-09T10:37:12.886Z,79.76
2018-06-09T10:38:12.827Z,79.17
2018-06-09T10:39:12.831Z,79.95
2018-06-09T10:40:12.781Z,79.47
2018-06-09T10:41:12.759Z,79.27
2018-06-09T10:42:12.746Z,79.47
2018-06-09T10:43:12.725Z,79.47
2018-06-09T10:44:12.711Z,79.02
2018-06-09T10:45:12.717Z,79.08
2018-06-09T10:46:12.679Z,79.47
2018-06-09T10:47:12.653Z,78.89
2018-06-09T10:48:12.650Z,79.17
2018-06-09T10:49:12.615Z,79.47
2018-06-09T10:50:12.608Z,80.24
2018-06-09T10:51:12.582Z,79.27
2018-06-09T10:52:12.562Z,79.50
2018-06-09T10:53:12.543Z,79.50
2018-06-09T10:54:12.537Z,79.27
2018-06-09T10:55:12.507Z,79.99
2018-06-09T10:56:12.492Z,78.92
2018-06-09T10:57:12.471Z,79.08
2018-06-09T10:58:12.471Z,79.02
2018-06-09T10:59:12.434Z,79.12
2018-06-09T11:00:12.428Z,78.74
2018-06-09T11:01:12.401Z,79.32
2018-06-09T11:02:12.386Z,78.89
2018-06-09T11:03:12.363Z,78.89
2018-06-09T11:04:12.349Z,79.76
2018-06-09T11:05:12.327Z,80.54
2018-06-09T11:06:12.313Z,79.76
2018-06-09T11:07:12.290Z,80.67
2018-06-09T11:08:12.278Z,79.50
2018-06-09T11:09:12.254Z,78.92
2018-06-09T11:10:12.243Z,78.54
2018-06-09T11:11:12.216Z,79.50
2018-06-09T11:12:12.208Z,79.50
2018-06-09T11:13:12.190Z,79.70
2018-06-09T11:14:12.163Z,79.50
2018-06-09T11:15:12.158Z,79.32
2018-06-09T11:16:12.132Z,80.19
2018-06-09T11:17:12.116Z,80.05
2018-06-09T11:18:12.099Z,80.19
2018-06-09T11:19:12.074Z,79.32
2018-06-09T11:20:12.063Z,79.60
2018-06-09T11:21:12.047Z,79.12
2018-06-09T11:22:12.020Z,80.19
2018-06-09T11:23:11.999Z,80.19
2018-06-09T11:24:11.990Z,79.80
2018-06-09T11:25:11.974Z,80.28
2018-06-09T11:26:11.946Z,79.80
2018-06-09T11:27:11.932Z,79.22
2018-06-09T11:28:11.921Z,79.90
2018-06-09T11:29:11.892Z,79.80
2018-06-09T11:30:11.883Z,80.42
2018-06-09T11:31:11.864Z,79.74
2018-06-09T11:32:11.861Z,79.35
2018-06-09T11:33:11.823Z,79.25
2018-06-09T11:34:11.807Z,79.55
2018-06-09T11:35:11.795Z,79.64
2018-06-09T11:36:11.767Z,80.13
2018-06-09T11:37:11.757Z,80.80
2018-06-09T11:38:11.733Z,79.93
2018-06-09T11:39:11.723Z,78.97
2018-06-09T11:40:11.698Z,79.25
2018-06-09T11:41:11.685Z,79.84
2018-06-09T11:42:11.661Z,79.45
2018-06-09T11:43:11.642Z,79.84
2018-06-09T11:44:11.637Z,79.97
2018-06-09T11:45:11.610Z,80.36
2018-06-09T11:46:11.594Z,80.55
2018-06-09T11:47:11.652Z,79.91
2018-06-09T11:48:11.560Z,78.69
2018-06-09T11:49:11.538Z,76.92
2018-06-09T11:50:11.527Z,73.11
2018-06-09T11:51:11.501Z,71.01
2018-06-09T11:52:11.500Z,69.62
2018-06-09T11:53:11.467Z,67.70
2018-06-09T11:54:11.458Z,67.74
2018-06-09T11:55:11.442Z,66.66
2018-06-09T11:56:11.431Z,66.50
2018-06-09T11:57:11.409Z,65.66
2018-06-09T11:58:11.393Z,64.48
2018-06-09T11:59:11.378Z,64.78
2018-06-09T12:00:11.357Z,65.75
2018-06-09T12:01:11.338Z,65.00
2018-06-09T12:02:11.331Z,62.63
2018-06-09T12:03:11.305Z,63.87
2018-06-09T12:04:11.297Z,66.05
2018-06-09T12:05:11.283Z,67.28
2018-06-09T12:06:11.265Z,69.20
2018-06-09T12:07:11.250Z,69.35
2018-06-09T12:08:11.242Z,71.07
2018-06-09T12:09:11.219Z,71.72
2018-06-09T12:10:11.195Z,72.17
2018-06-09T12:11:11.189Z,72.55
2018-06-09T12:12:11.175Z,73.58
2018-06-09T12:13:11.154Z,73.00
2018-06-09T12:14:11.137Z,74.52
2018-06-09T12:15:11.125Z,74.46
2018-06-09T12:16:11.104Z,75.34
2018-06-09T12:17:11.137Z,76.07
2018-06-09T12:18:11.070Z,75.53
2018-06-09T12:19:11.059Z,74.46
2018-06-09T12:20:11.043Z,74.40
2018-06-09T12:21:11.028Z,73.88
2018-06-09T12:22:11.005Z,72.75
2018-06-09T12:23:10.988Z,72.88
2018-06-09T12:24:10.983Z,72.98
2018-06-09T12:25:10.955Z,72.49
2018-06-09T12:26:10.949Z,71.56
2018-06-09T12:27:10.928Z,70.29
2018-06-09T12:28:10.929Z,69.42
2018-06-09T12:29:10.895Z,70.36
2018-06-09T12:30:10.884Z,71.72
2018-06-09T12:31:10.861Z,71.72
2018-06-09T12:32:10.851Z,70.94
2018-06-09T12:33:10.838Z,72.98
2018-06-09T12:34:10.813Z,71.52
2018-06-09T12:35:10.805Z,72.39
2018-06-09T12:36:10.785Z,72.30
2018-06-09T12:37:10.775Z,72.39
2018-06-09T12:38:10.752Z,71.91
2018-06-09T12:39:10.740Z,72.14
2018-06-09T12:40:10.723Z,71.94
2018-06-09T12:41:10.700Z,71.98
2018-06-09T12:42:10.694Z,72.04
2018-06-09T12:43:10.669Z,72.53
2018-06-09T12:44:10.655Z,71.52
2018-06-09T12:45:10.644Z,73.18
2018-06-09T12:46:10.624Z,72.78
2018-06-09T12:47:10.610Z,73.46
2018-06-09T12:48:10.601Z,73.08
2018-06-09T12:49:10.575Z,72.59
2018-06-09T12:50:10.572Z,72.88
2018-06-09T12:51:10.545Z,72.49
2018-06-09T12:52:10.539Z,73.08